sensor_id;sensor_type;location;lat;lon;timestamp;temperature;humidity
10660;DHT22;5378;53.206;13.316;2022-07-04T00:00:41;19.70;99.90
10660;DHT22;5378;53.206;13.316;2022-07-04T00:03:28;19.50;99.90
10660;DHT22;5378;53.206;13.316;2022-07-04T00:06:15;19.30;99.90
10660;DHT22;5378;53.206;13.316;2022-07-04T00:09:02;19.40;99.90
10660;DHT22;5378;53.206;13.316;2022-07-04T00:11:50;19.50;99.90
10660;DHT22;5378;53.206;13.316;2022-07-04T00:14:37;19.40;99.90
10660;DHT22;5378;53.206;13.316;2022-07-04T00:17:27;19.40;99.90
10660;DHT22;5378;53.206;13.316;2022-07-04T00:20:13;19.60;99.90
10660;DHT22;5378;53.206;13.316;2022-07-04T00:23:00;19.60;99.90
10660;DHT22;5378;53.206;13.316;2022-07-04T00:25:47;19.50;99.90
10660;DHT22;5378;53.206;13.316;2022-07-04T00:28:34;19.40;99.90
10660;DHT22;5378;53.206;13.316;2022-07-04T00:31:21;19.30;99.90
10660;DHT22;5378;53.206;13.316;2022-07-04T00:34:09;19.30;99.90
10660;DHT22;5378;53.206;13.316;2022-07-04T00:36:56;19.20;99.90
10660;DHT22;5378;53.206;13.316;2022-07-04T00:39:43;19.10;99.90
10660;DHT22;5378;53.206;13.316;2022-07-04T00:42:30;19.10;99.90
10660;DHT22;5378;53.206;13.316;2022-07-04T00:45:17;19.10;99.90
10660;DHT22;5378;53.206;13.316;2022-07-04T00:48:05;19.00;99.90
10660;DHT22;5378;53.206;13.316;2022-07-04T00:50:53;19.00;99.90
10660;DHT22;5378;53.206;13.316;2022-07-04T00:53:40;19.00;99.90
10660;DHT22;5378;53.206;13.316;2022-07-04T00:56:27;19.00;99.90
10660;DHT22;5378;53.206;13.316;2022-07-04T00:59:14;19.00;99.90
10660;DHT22;5378;53.206;13.316;2022-07-04T01:02:01;19.00;99.90
10660;DHT22;5378;53.206;13.316;2022-07-04T01:04:48;19.00;99.90
10660;DHT22;5378;53.206;13.316;2022-07-04T01:07:36;19.20;99.90
10660;DHT22;5378;53.206;13.316;2022-07-04T01:10:24;19.20;99.90
10660;DHT22;5378;53.206;13.316;2022-07-04T01:13:19;19.20;99.90
10660;DHT22;5378;53.206;13.316;2022-07-04T01:16:08;19.40;99.90
10660;DHT22;5378;53.206;13.316;2022-07-04T01:18:55;19.30;99.90
10660;DHT22;5378;53.206;13.316;2022-07-04T01:21:43;19.30;99.90
10660;DHT22;5378;53.206;13.316;2022-07-04T01:24:30;19.20;99.90
10660;DHT22;5378;53.206;13.316;2022-07-04T01:27:17;19.20;99.90
10660;DHT22;5378;53.206;13.316;2022-07-04T01:30:05;19.20;99.90
10660;DHT22;5378;53.206;13.316;2022-07-04T01:32:52;19.30;99.90
10660;DHT22;5378;53.206;13.316;2022-07-04T01:35:40;19.30;99.90
10660;DHT22;5378;53.206;13.316;2022-07-04T01:38:29;19.10;99.90
10660;DHT22;5378;53.206;13.316;2022-07-04T01:41:16;19.10;99.90
10660;DHT22;5378;53.206;13.316;2022-07-04T01:44:03;19.10;99.90
10660;DHT22;5378;53.206;13.316;2022-07-04T01:46:50;19.10;99.90
10660;DHT22;5378;53.206;13.316;2022-07-04T01:49:37;19.10;99.90
10660;DHT22;5378;53.206;13.316;2022-07-04T01:52:24;18.90;99.90
10660;DHT22;5378;53.206;13.316;2022-07-04T01:55:13;18.90;99.90
10660;DHT22;5378;53.206;13.316;2022-07-04T01:58:01;18.80;99.90
10660;DHT22;5378;53.206;13.316;2022-07-04T02:00:47;18.70;99.90
10660;DHT22;5378;53.206;13.316;2022-07-04T02:03:52;18.60;99.90
10660;DHT22;5378;53.206;13.316;2022-07-04T02:06:39;18.50;99.90
10660;DHT22;5378;53.206;13.316;2022-07-04T02:09:26;18.50;99.90
10660;DHT22;5378;53.206;13.316;2022-07-04T02:12:15;18.50;99.90
10660;DHT22;5378;53.206;13.316;2022-07-04T02:15:20;18.50;99.90
10660;DHT22;5378;53.206;13.316;2022-07-04T02:18:09;18.50;99.90
10660;DHT22;5378;53.206;13.316;2022-07-04T02:20:56;18.30;99.90
10660;DHT22;5378;53.206;13.316;2022-07-04T02:23:43;18.40;99.90
10660;DHT22;5378;53.206;13.316;2022-07-04T02:26:30;18.30;99.90
10660;DHT22;5378;53.206;13.316;2022-07-04T02:29:18;18.40;99.90
10660;DHT22;5378;53.206;13.316;2022-07-04T02:32:05;18.40;99.90
10660;DHT22;5378;53.206;13.316;2022-07-04T02:34:53;18.40;99.90
10660;DHT22;5378;53.206;13.316;2022-07-04T02:37:40;18.30;99.90
10660;DHT22;5378;53.206;13.316;2022-07-04T02:40:27;18.30;99.90
10660;DHT22;5378;53.206;13.316;2022-07-04T02:43:14;18.30;99.90
10660;DHT22;5378;53.206;13.316;2022-07-04T02:46:02;18.30;99.90
10660;DHT22;5378;53.206;13.316;2022-07-04T02:48:49;18.30;99.90
10660;DHT22;5378;53.206;13.316;2022-07-04T02:51:37;18.30;99.90
10660;DHT22;5378;53.206;13.316;2022-07-04T02:54:24;18.20;99.90
10660;DHT22;5378;53.206;13.316;2022-07-04T02:57:11;18.20;99.90
10660;DHT22;5378;53.206;13.316;2022-07-04T02:59:58;18.20;99.90
10660;DHT22;5378;53.206;13.316;2022-07-04T03:02:46;18.20;99.90
10660;DHT22;5378;53.206;13.316;2022-07-04T03:05:33;18.20;99.90
10660;DHT22;5378;53.206;13.316;2022-07-04T03:08:20;18.20;99.90
10660;DHT22;5378;53.206;13.316;2022-07-04T03:11:07;18.20;99.90
10660;DHT22;5378;53.206;13.316;2022-07-04T03:13:54;18.20;99.90
10660;DHT22;5378;53.206;13.316;2022-07-04T03:16:41;18.30;99.90
10660;DHT22;5378;53.206;13.316;2022-07-04T03:19:29;18.20;99.90
10660;DHT22;5378;53.206;13.316;2022-07-04T03:22:17;18.30;99.90
10660;DHT22;5378;53.206;13.316;2022-07-04T03:25:04;18.20;99.90
10660;DHT22;5378;53.206;13.316;2022-07-04T03:27:52;18.20;99.90
10660;DHT22;5378;53.206;13.316;2022-07-04T03:30:39;18.30;99.90
10660;DHT22;5378;53.206;13.316;2022-07-04T03:33:26;18.30;99.90
10660;DHT22;5378;53.206;13.316;2022-07-04T03:36:15;18.40;99.90
10660;DHT22;5378;53.206;13.316;2022-07-04T03:39:02;18.50;99.90
10660;DHT22;5378;53.206;13.316;2022-07-04T03:41:50;18.50;99.90
10660;DHT22;5378;53.206;13.316;2022-07-04T03:44:37;18.50;99.90
10660;DHT22;5378;53.206;13.316;2022-07-04T03:47:24;18.50;99.90
10660;DHT22;5378;53.206;13.316;2022-07-04T03:50:11;18.40;99.90
10660;DHT22;5378;53.206;13.316;2022-07-04T03:53:00;18.40;99.90
10660;DHT22;5378;53.206;13.316;2022-07-04T03:55:47;18.40;99.90
10660;DHT22;5378;53.206;13.316;2022-07-04T03:58:34;18.50;99.90
10660;DHT22;5378;53.206;13.316;2022-07-04T04:01:21;18.70;99.90
10660;DHT22;5378;53.206;13.316;2022-07-04T04:04:08;19.70;99.90
10660;DHT22;5378;53.206;13.316;2022-07-04T04:07:12;21.20;99.90
10660;DHT22;5378;53.206;13.316;2022-07-04T04:10:00;22.80;99.90
10660;DHT22;5378;53.206;13.316;2022-07-04T04:12:47;24.00;99.90
10660;DHT22;5378;53.206;13.316;2022-07-04T04:15:34;24.30;99.90
10660;DHT22;5378;53.206;13.316;2022-07-04T04:18:21;24.20;99.90
10660;DHT22;5378;53.206;13.316;2022-07-04T04:21:08;24.80;99.90
10660;DHT22;5378;53.206;13.316;2022-07-04T04:23:55;25.80;99.90
10660;DHT22;5378;53.206;13.316;2022-07-04T04:26:44;25.90;99.90
10660;DHT22;5378;53.206;13.316;2022-07-04T04:29:30;26.00;99.90
10660;DHT22;5378;53.206;13.316;2022-07-04T04:32:18;26.80;99.90
10660;DHT22;5378;53.206;13.316;2022-07-04T04:35:05;27.50;99.90
10660;DHT22;5378;53.206;13.316;2022-07-04T04:37:52;27.60;99.90
10660;DHT22;5378;53.206;13.316;2022-07-04T04:40:39;26.60;99.90
10660;DHT22;5378;53.206;13.316;2022-07-04T04:43:28;25.50;99.90
10660;DHT22;5378;53.206;13.316;2022-07-04T04:46:15;24.20;99.90
10660;DHT22;5378;53.206;13.316;2022-07-04T04:49:02;23.70;99.90
10660;DHT22;5378;53.206;13.316;2022-07-04T04:51:49;23.80;99.90
10660;DHT22;5378;53.206;13.316;2022-07-04T04:54:36;23.90;99.90
10660;DHT22;5378;53.206;13.316;2022-07-04T04:57:23;24.70;99.90
10660;DHT22;5378;53.206;13.316;2022-07-04T05:00:12;26.10;99.90
10660;DHT22;5378;53.206;13.316;2022-07-04T05:02:59;27.40;99.90
10660;DHT22;5378;53.206;13.316;2022-07-04T05:05:46;28.30;99.90
10660;DHT22;5378;53.206;13.316;2022-07-04T05:08:35;28.90;99.90
10660;DHT22;5378;53.206;13.316;2022-07-04T05:11:22;29.00;99.90
10660;DHT22;5378;53.206;13.316;2022-07-04T05:14:09;28.70;99.90
10660;DHT22;5378;53.206;13.316;2022-07-04T05:16:58;29.40;99.90
10660;DHT22;5378;53.206;13.316;2022-07-04T05:19:45;30.20;99.90
10660;DHT22;5378;53.206;13.316;2022-07-04T05:22:31;30.90;99.90
10660;DHT22;5378;53.206;13.316;2022-07-04T05:25:19;31.70;99.90
10660;DHT22;5378;53.206;13.316;2022-07-04T05:28:06;32.00;99.90
10660;DHT22;5378;53.206;13.316;2022-07-04T05:30:53;32.10;99.90
10660;DHT22;5378;53.206;13.316;2022-07-04T05:33:41;32.20;99.90
10660;DHT22;5378;53.206;13.316;2022-07-04T05:36:28;31.30;99.80
10660;DHT22;5378;53.206;13.316;2022-07-04T05:39:15;31.20;99.90
10660;DHT22;5378;53.206;13.316;2022-07-04T05:42:03;31.40;99.90
10660;DHT22;5378;53.206;13.316;2022-07-04T05:44:50;31.20;99.90
10660;DHT22;5378;53.206;13.316;2022-07-04T05:47:37;30.70;99.50
10660;DHT22;5378;53.206;13.316;2022-07-04T05:50:25;30.90;99.10
10660;DHT22;5378;53.206;13.316;2022-07-04T05:53:15;31.60;98.40
10660;DHT22;5378;53.206;13.316;2022-07-04T05:56:02;32.80;97.80
10660;DHT22;5378;53.206;13.316;2022-07-04T05:58:49;32.60;97.10
10660;DHT22;5378;53.206;13.316;2022-07-04T06:01:37;33.20;95.60
10660;DHT22;5378;53.206;13.316;2022-07-04T06:04:25;32.80;95.90
10660;DHT22;5378;53.206;13.316;2022-07-04T06:07:13;32.80;95.00
10660;DHT22;5378;53.206;13.316;2022-07-04T06:10:00;32.90;95.20
10660;DHT22;5378;53.206;13.316;2022-07-04T06:12:47;33.60;93.90
10660;DHT22;5378;53.206;13.316;2022-07-04T06:15:35;34.60;93.70
10660;DHT22;5378;53.206;13.316;2022-07-04T06:18:22;34.70;91.30
10660;DHT22;5378;53.206;13.316;2022-07-04T06:21:09;33.30;91.70
10660;DHT22;5378;53.206;13.316;2022-07-04T06:23:58;33.40;92.50
10660;DHT22;5378;53.206;13.316;2022-07-04T06:26:45;33.30;92.80
10660;DHT22;5378;53.206;13.316;2022-07-04T06:29:32;34.00;91.70
10660;DHT22;5378;53.206;13.316;2022-07-04T06:32:19;33.70;91.70
10660;DHT22;5378;53.206;13.316;2022-07-04T06:35:09;32.50;91.70
10660;DHT22;5378;53.206;13.316;2022-07-04T06:38:15;32.10;92.30
10660;DHT22;5378;53.206;13.316;2022-07-04T06:41:03;33.10;92.20
10660;DHT22;5378;53.206;13.316;2022-07-04T06:43:50;34.40;91.20
10660;DHT22;5378;53.206;13.316;2022-07-04T06:46:37;34.80;90.20
10660;DHT22;5378;53.206;13.316;2022-07-04T06:49:24;33.50;90.30
10660;DHT22;5378;53.206;13.316;2022-07-04T06:52:11;34.20;90.70
10660;DHT22;5378;53.206;13.316;2022-07-04T06:54:58;35.30;86.70
10660;DHT22;5378;53.206;13.316;2022-07-04T06:57:49;35.80;86.20
10660;DHT22;5378;53.206;13.316;2022-07-04T07:00:36;35.70;86.10
10660;DHT22;5378;53.206;13.316;2022-07-04T07:03:24;36.00;85.10
10660;DHT22;5378;53.206;13.316;2022-07-04T07:06:13;36.80;83.70
10660;DHT22;5378;53.206;13.316;2022-07-04T07:09:00;37.20;82.10
10660;DHT22;5378;53.206;13.316;2022-07-04T07:11:47;37.00;81.50
10660;DHT22;5378;53.206;13.316;2022-07-04T07:14:35;37.20;79.30
10660;DHT22;5378;53.206;13.316;2022-07-04T07:17:22;36.00;79.40
10660;DHT22;5378;53.206;13.316;2022-07-04T07:20:09;33.60;83.60
10660;DHT22;5378;53.206;13.316;2022-07-04T07:23:01;33.30;86.90
10660;DHT22;5378;53.206;13.316;2022-07-04T07:25:48;34.30;85.10
10660;DHT22;5378;53.206;13.316;2022-07-04T07:28:35;35.40;82.50
10660;DHT22;5378;53.206;13.316;2022-07-04T07:31:23;35.70;79.50
10660;DHT22;5378;53.206;13.316;2022-07-04T07:34:10;36.10;82.40
10660;DHT22;5378;53.206;13.316;2022-07-04T07:36:57;36.20;78.70
10660;DHT22;5378;53.206;13.316;2022-07-04T07:39:44;34.20;81.40
10660;DHT22;5378;53.206;13.316;2022-07-04T07:42:32;32.80;84.50
10660;DHT22;5378;53.206;13.316;2022-07-04T07:45:19;33.50;83.30
10660;DHT22;5378;53.206;13.316;2022-07-04T07:48:08;34.50;82.70
10660;DHT22;5378;53.206;13.316;2022-07-04T07:50:55;33.10;81.70
10660;DHT22;5378;53.206;13.316;2022-07-04T07:53:42;31.60;86.40
10660;DHT22;5378;53.206;13.316;2022-07-04T07:56:39;31.40;88.00
10660;DHT22;5378;53.206;13.316;2022-07-04T07:59:26;32.30;86.00
10660;DHT22;5378;53.206;13.316;2022-07-04T08:02:13;33.40;82.90
10660;DHT22;5378;53.206;13.316;2022-07-04T08:05:01;32.70;83.50
10660;DHT22;5378;53.206;13.316;2022-07-04T08:07:48;33.60;82.10
10660;DHT22;5378;53.206;13.316;2022-07-04T08:10:34;34.60;79.00
10660;DHT22;5378;53.206;13.316;2022-07-04T08:13:21;33.00;81.20
10660;DHT22;5378;53.206;13.316;2022-07-04T08:16:09;32.20;83.80
10660;DHT22;5378;53.206;13.316;2022-07-04T08:18:56;31.90;84.80
10660;DHT22;5378;53.206;13.316;2022-07-04T08:21:45;32.70;84.50
10660;DHT22;5378;53.206;13.316;2022-07-04T08:24:50;33.40;80.00
10660;DHT22;5378;53.206;13.316;2022-07-04T08:27:37;33.30;79.00
10660;DHT22;5378;53.206;13.316;2022-07-04T08:30:24;33.40;78.40
10660;DHT22;5378;53.206;13.316;2022-07-04T08:33:11;34.20;77.40
10660;DHT22;5378;53.206;13.316;2022-07-04T08:35:59;35.00;78.80
10660;DHT22;5378;53.206;13.316;2022-07-04T08:38:47;35.50;77.50
10660;DHT22;5378;53.206;13.316;2022-07-04T08:41:37;35.90;77.20
10660;DHT22;5378;53.206;13.316;2022-07-04T08:44:27;36.20;75.30
10660;DHT22;5378;53.206;13.316;2022-07-04T08:47:18;36.10;76.10
10660;DHT22;5378;53.206;13.316;2022-07-04T08:50:09;35.40;74.50
10660;DHT22;5378;53.206;13.316;2022-07-04T08:52:59;34.30;77.30
10660;DHT22;5378;53.206;13.316;2022-07-04T08:55:48;34.80;76.70
10660;DHT22;5378;53.206;13.316;2022-07-04T08:58:53;35.70;72.30
10660;DHT22;5378;53.206;13.316;2022-07-04T09:01:42;36.00;74.40
10660;DHT22;5378;53.206;13.316;2022-07-04T09:04:29;36.10;72.70
10660;DHT22;5378;53.206;13.316;2022-07-04T09:07:17;35.90;73.00
10660;DHT22;5378;53.206;13.316;2022-07-04T09:10:05;35.80;73.70
10660;DHT22;5378;53.206;13.316;2022-07-04T09:12:54;35.30;75.30
10660;DHT22;5378;53.206;13.316;2022-07-04T09:15:55;35.20;73.80
10660;DHT22;5378;53.206;13.316;2022-07-04T09:18:42;34.60;72.90
10660;DHT22;5378;53.206;13.316;2022-07-04T09:21:43;34.10;73.50
10660;DHT22;5378;53.206;13.316;2022-07-04T09:24:48;33.40;74.60
10660;DHT22;5378;53.206;13.316;2022-07-04T09:27:37;32.70;76.40
10660;DHT22;5378;53.206;13.316;2022-07-04T09:30:27;32.00;76.60
10660;DHT22;5378;53.206;13.316;2022-07-04T09:33:15;31.00;77.70
10660;DHT22;5378;53.206;13.316;2022-07-04T09:36:10;29.70;79.40
10660;DHT22;5378;53.206;13.316;2022-07-04T09:39:05;28.40;82.70
10660;DHT22;5378;53.206;13.316;2022-07-04T09:41:54;27.60;86.00
10660;DHT22;5378;53.206;13.316;2022-07-04T09:44:46;27.10;85.70
10660;DHT22;5378;53.206;13.316;2022-07-04T09:47:37;27.10;88.10
10660;DHT22;5378;53.206;13.316;2022-07-04T09:50:25;27.40;86.30
10660;DHT22;5378;53.206;13.316;2022-07-04T09:53:14;27.30;85.10
10660;DHT22;5378;53.206;13.316;2022-07-04T09:56:01;27.30;82.80
10660;DHT22;5378;53.206;13.316;2022-07-04T09:58:56;27.40;85.70
10660;DHT22;5378;53.206;13.316;2022-07-04T10:01:43;27.10;81.10
10660;DHT22;5378;53.206;13.316;2022-07-04T10:04:47;26.70;85.20
10660;DHT22;5378;53.206;13.316;2022-07-04T10:07:35;26.20;88.60
10660;DHT22;5378;53.206;13.316;2022-07-04T10:10:28;25.80;87.80
10660;DHT22;5378;53.206;13.316;2022-07-04T10:13:16;25.60;88.30
10660;DHT22;5378;53.206;13.316;2022-07-04T10:16:04;25.80;86.60
10660;DHT22;5378;53.206;13.316;2022-07-04T10:18:54;25.90;86.50
10660;DHT22;5378;53.206;13.316;2022-07-04T10:21:42;25.90;86.80
10660;DHT22;5378;53.206;13.316;2022-07-04T10:24:30;25.60;84.10
10660;DHT22;5378;53.206;13.316;2022-07-04T10:27:17;25.60;87.70
10660;DHT22;5378;53.206;13.316;2022-07-04T10:30:06;25.70;87.60
10660;DHT22;5378;53.206;13.316;2022-07-04T10:32:57;26.10;87.80
10660;DHT22;5378;53.206;13.316;2022-07-04T10:35:53;26.20;87.10
10660;DHT22;5378;53.206;13.316;2022-07-04T10:38:49;26.20;86.80
10660;DHT22;5378;53.206;13.316;2022-07-04T10:41:55;26.10;88.10
10660;DHT22;5378;53.206;13.316;2022-07-04T10:44:43;25.70;86.10
10660;DHT22;5378;53.206;13.316;2022-07-04T10:47:30;25.40;88.50
10660;DHT22;5378;53.206;13.316;2022-07-04T10:50:27;25.10;88.70
10660;DHT22;5378;53.206;13.316;2022-07-04T10:53:14;25.10;90.50
10660;DHT22;5378;53.206;13.316;2022-07-04T10:56:34;25.20;88.50
10660;DHT22;5378;53.206;13.316;2022-07-04T10:59:24;25.20;87.70
10660;DHT22;5378;53.206;13.316;2022-07-04T11:02:26;25.00;89.40
10660;DHT22;5378;53.206;13.316;2022-07-04T11:05:14;24.90;89.50
10660;DHT22;5378;53.206;13.316;2022-07-04T11:08:01;24.70;86.50
10660;DHT22;5378;53.206;13.316;2022-07-04T11:10:52;24.90;85.10
10660;DHT22;5378;53.206;13.316;2022-07-04T11:17:14;25.50;87.30
10660;DHT22;5378;53.206;13.316;2022-07-04T11:20:03;25.80;86.80
10660;DHT22;5378;53.206;13.316;2022-07-04T11:23:03;25.70;87.30
10660;DHT22;5378;53.206;13.316;2022-07-04T11:25:50;25.70;89.20
10660;DHT22;5378;53.206;13.316;2022-07-04T11:28:40;25.60;85.30
10660;DHT22;5378;53.206;13.316;2022-07-04T11:31:37;25.30;86.30
10660;DHT22;5378;53.206;13.316;2022-07-04T11:34:31;25.30;85.20
10660;DHT22;5378;53.206;13.316;2022-07-04T11:37:18;25.40;86.30
10660;DHT22;5378;53.206;13.316;2022-07-04T11:40:07;25.50;88.10
10660;DHT22;5378;53.206;13.316;2022-07-04T11:43:08;25.70;90.10
10660;DHT22;5378;53.206;13.316;2022-07-04T11:46:21;25.90;90.10
10660;DHT22;5378;53.206;13.316;2022-07-04T11:49:09;26.20;87.00
10660;DHT22;5378;53.206;13.316;2022-07-04T11:51:58;26.00;83.90
10660;DHT22;5378;53.206;13.316;2022-07-04T11:54:47;25.60;86.10
10660;DHT22;5378;53.206;13.316;2022-07-04T11:57:40;25.40;88.40
10660;DHT22;5378;53.206;13.316;2022-07-04T12:00:28;25.40;88.40
10660;DHT22;5378;53.206;13.316;2022-07-04T12:03:17;25.70;88.80
10660;DHT22;5378;53.206;13.316;2022-07-04T12:06:05;25.80;90.50
10660;DHT22;5378;53.206;13.316;2022-07-04T12:08:54;26.10;87.40
10660;DHT22;5378;53.206;13.316;2022-07-04T12:11:55;26.00;85.00
10660;DHT22;5378;53.206;13.316;2022-07-04T12:15:04;25.90;86.40
10660;DHT22;5378;53.206;13.316;2022-07-04T12:17:53;25.50;83.90
10660;DHT22;5378;53.206;13.316;2022-07-04T12:20:41;25.20;85.40
10660;DHT22;5378;53.206;13.316;2022-07-04T12:23:27;25.00;85.70
10660;DHT22;5378;53.206;13.316;2022-07-04T12:26:16;25.20;85.50
10660;DHT22;5378;53.206;13.316;2022-07-04T12:29:03;25.50;85.30
10660;DHT22;5378;53.206;13.316;2022-07-04T12:31:55;25.40;84.60
10660;DHT22;5378;53.206;13.316;2022-07-04T12:34:42;25.20;83.90
10660;DHT22;5378;53.206;13.316;2022-07-04T12:37:29;24.80;86.20
10660;DHT22;5378;53.206;13.316;2022-07-04T12:40:16;24.60;85.10
10660;DHT22;5378;53.206;13.316;2022-07-04T12:43:04;24.40;87.20
10660;DHT22;5378;53.206;13.316;2022-07-04T12:45:52;24.30;87.30
10660;DHT22;5378;53.206;13.316;2022-07-04T12:48:42;24.60;82.90
10660;DHT22;5378;53.206;13.316;2022-07-04T12:51:30;25.00;83.80
10660;DHT22;5378;53.206;13.316;2022-07-04T12:54:18;25.20;86.00
10660;DHT22;5378;53.206;13.316;2022-07-04T12:57:07;25.10;84.60
10660;DHT22;5378;53.206;13.316;2022-07-04T12:59:56;25.10;86.50
10660;DHT22;5378;53.206;13.316;2022-07-04T13:02:53;25.00;83.70
10660;DHT22;5378;53.206;13.316;2022-07-04T13:05:41;25.00;83.10
10660;DHT22;5378;53.206;13.316;2022-07-04T13:08:28;24.90;81.50
10660;DHT22;5378;53.206;13.316;2022-07-04T13:11:16;24.80;83.80
10660;DHT22;5378;53.206;13.316;2022-07-04T13:14:20;24.70;83.90
10660;DHT22;5378;53.206;13.316;2022-07-04T13:17:08;24.60;82.00
10660;DHT22;5378;53.206;13.316;2022-07-04T13:19:55;24.90;83.40
10660;DHT22;5378;53.206;13.316;2022-07-04T13:22:43;25.40;84.20
10660;DHT22;5378;53.206;13.316;2022-07-04T13:25:30;25.50;82.40
10660;DHT22;5378;53.206;13.316;2022-07-04T13:28:17;25.50;80.60
10660;DHT22;5378;53.206;13.316;2022-07-04T13:31:04;25.40;82.20
10660;DHT22;5378;53.206;13.316;2022-07-04T13:33:54;25.50;83.80
10660;DHT22;5378;53.206;13.316;2022-07-04T13:36:42;25.50;83.00
10660;DHT22;5378;53.206;13.316;2022-07-04T13:39:29;25.40;82.10
10660;DHT22;5378;53.206;13.316;2022-07-04T13:42:36;25.40;83.60
10660;DHT22;5378;53.206;13.316;2022-07-04T13:45:42;25.30;86.20
10660;DHT22;5378;53.206;13.316;2022-07-04T13:48:30;25.50;85.50
10660;DHT22;5378;53.206;13.316;2022-07-04T13:51:18;25.70;82.70
10660;DHT22;5378;53.206;13.316;2022-07-04T13:54:05;25.70;83.60
10660;DHT22;5378;53.206;13.316;2022-07-04T13:56:52;25.80;84.20
10660;DHT22;5378;53.206;13.316;2022-07-04T13:59:39;25.80;82.40
10660;DHT22;5378;53.206;13.316;2022-07-04T14:02:27;25.60;85.60
10660;DHT22;5378;53.206;13.316;2022-07-04T14:05:14;25.30;85.50
10660;DHT22;5378;53.206;13.316;2022-07-04T14:08:02;25.10;86.00
10660;DHT22;5378;53.206;13.316;2022-07-04T14:10:49;24.90;86.60
10660;DHT22;5378;53.206;13.316;2022-07-04T14:13:36;24.90;84.30
10660;DHT22;5378;53.206;13.316;2022-07-04T14:16:23;25.10;84.90
10660;DHT22;5378;53.206;13.316;2022-07-04T14:19:10;25.30;84.50
10660;DHT22;5378;53.206;13.316;2022-07-04T14:21:58;25.60;83.20
10660;DHT22;5378;53.206;13.316;2022-07-04T14:24:46;25.90;80.30
10660;DHT22;5378;53.206;13.316;2022-07-04T14:27:34;26.10;82.90
10660;DHT22;5378;53.206;13.316;2022-07-04T14:30:21;26.10;79.70
10660;DHT22;5378;53.206;13.316;2022-07-04T14:33:08;26.10;82.50
10660;DHT22;5378;53.206;13.316;2022-07-04T14:35:55;26.10;80.60
10660;DHT22;5378;53.206;13.316;2022-07-04T14:38:42;26.00;82.90
10660;DHT22;5378;53.206;13.316;2022-07-04T14:41:30;25.80;82.60
10660;DHT22;5378;53.206;13.316;2022-07-04T14:44:17;25.70;83.10
10660;DHT22;5378;53.206;13.316;2022-07-04T14:47:04;25.60;83.50
10660;DHT22;5378;53.206;13.316;2022-07-04T14:49:55;25.60;84.70
10660;DHT22;5378;53.206;13.316;2022-07-04T14:52:42;25.50;83.90
10660;DHT22;5378;53.206;13.316;2022-07-04T14:55:29;25.40;81.80
10660;DHT22;5378;53.206;13.316;2022-07-04T14:58:18;25.30;84.40
10660;DHT22;5378;53.206;13.316;2022-07-04T15:01:05;25.20;83.70
10660;DHT22;5378;53.206;13.316;2022-07-04T15:03:52;25.00;85.40
10660;DHT22;5378;53.206;13.316;2022-07-04T15:06:40;24.90;89.20
10660;DHT22;5378;53.206;13.316;2022-07-04T15:09:27;24.70;85.00
10660;DHT22;5378;53.206;13.316;2022-07-04T15:12:14;24.60;87.90
10660;DHT22;5378;53.206;13.316;2022-07-04T15:15:02;24.50;85.20
10660;DHT22;5378;53.206;13.316;2022-07-04T15:17:50;24.30;83.60
10660;DHT22;5378;53.206;13.316;2022-07-04T15:20:38;24.20;86.60
10660;DHT22;5378;53.206;13.316;2022-07-04T15:23:43;24.30;87.30
10660;DHT22;5378;53.206;13.316;2022-07-04T15:26:49;24.40;88.20
10660;DHT22;5378;53.206;13.316;2022-07-04T15:29:37;24.30;82.70
10660;DHT22;5378;53.206;13.316;2022-07-04T15:32:25;24.50;84.60
10660;DHT22;5378;53.206;13.316;2022-07-04T15:35:13;24.60;85.00
10660;DHT22;5378;53.206;13.316;2022-07-04T15:38:00;24.70;85.90
10660;DHT22;5378;53.206;13.316;2022-07-04T15:40:47;24.80;86.40
10660;DHT22;5378;53.206;13.316;2022-07-04T15:43:35;25.00;86.90
10660;DHT22;5378;53.206;13.316;2022-07-04T15:46:21;25.20;84.90
10660;DHT22;5378;53.206;13.316;2022-07-04T15:49:10;25.40;83.60
10660;DHT22;5378;53.206;13.316;2022-07-04T15:52:05;25.70;83.40
10660;DHT22;5378;53.206;13.316;2022-07-04T15:54:52;25.80;82.00
10660;DHT22;5378;53.206;13.316;2022-07-04T15:57:39;25.80;80.50
10660;DHT22;5378;53.206;13.316;2022-07-04T16:00:26;25.80;81.40
10660;DHT22;5378;53.206;13.316;2022-07-04T16:03:13;25.80;81.30
10660;DHT22;5378;53.206;13.316;2022-07-04T16:06:03;25.70;82.60
10660;DHT22;5378;53.206;13.316;2022-07-04T16:08:50;25.50;79.30
10660;DHT22;5378;53.206;13.316;2022-07-04T16:11:37;25.40;81.60
10660;DHT22;5378;53.206;13.316;2022-07-04T16:14:24;25.30;79.10
10660;DHT22;5378;53.206;13.316;2022-07-04T16:17:11;25.10;80.70
10660;DHT22;5378;53.206;13.316;2022-07-04T16:19:58;25.00;81.10
10660;DHT22;5378;53.206;13.316;2022-07-04T16:22:46;24.90;80.30
10660;DHT22;5378;53.206;13.316;2022-07-04T16:25:33;24.90;82.30
10660;DHT22;5378;53.206;13.316;2022-07-04T16:28:21;24.90;82.10
10660;DHT22;5378;53.206;13.316;2022-07-04T16:31:08;24.90;82.50
10660;DHT22;5378;53.206;13.316;2022-07-04T16:33:57;24.50;84.10
10660;DHT22;5378;53.206;13.316;2022-07-04T16:36:44;24.30;84.60
10660;DHT22;5378;53.206;13.316;2022-07-04T16:39:33;24.20;82.00
10660;DHT22;5378;53.206;13.316;2022-07-04T16:42:20;24.20;82.90
10660;DHT22;5378;53.206;13.316;2022-07-04T16:45:08;24.10;81.60
10660;DHT22;5378;53.206;13.316;2022-07-04T16:47:55;23.90;81.70
10660;DHT22;5378;53.206;13.316;2022-07-04T16:50:42;23.90;82.10
10660;DHT22;5378;53.206;13.316;2022-07-04T16:53:29;23.90;81.90
10660;DHT22;5378;53.206;13.316;2022-07-04T16:56:18;23.90;82.80
10660;DHT22;5378;53.206;13.316;2022-07-04T16:59:05;24.00;83.80
10660;DHT22;5378;53.206;13.316;2022-07-04T17:01:52;24.20;84.10
10660;DHT22;5378;53.206;13.316;2022-07-04T17:04:39;24.30;82.90
10660;DHT22;5378;53.206;13.316;2022-07-04T17:07:26;24.40;81.60
10660;DHT22;5378;53.206;13.316;2022-07-04T17:10:14;24.50;80.60
10660;DHT22;5378;53.206;13.316;2022-07-04T17:13:03;24.50;81.50
10660;DHT22;5378;53.206;13.316;2022-07-04T17:15:52;24.40;83.40
10660;DHT22;5378;53.206;13.316;2022-07-04T17:18:39;24.30;82.80
10660;DHT22;5378;53.206;13.316;2022-07-04T17:21:26;24.20;83.10
10660;DHT22;5378;53.206;13.316;2022-07-04T17:24:13;24.10;81.00
10660;DHT22;5378;53.206;13.316;2022-07-04T17:27:00;23.90;81.70
10660;DHT22;5378;53.206;13.316;2022-07-04T17:29:53;23.80;83.10
10660;DHT22;5378;53.206;13.316;2022-07-04T17:32:40;23.80;84.80
10660;DHT22;5378;53.206;13.316;2022-07-04T17:35:28;23.70;85.40
10660;DHT22;5378;53.206;13.316;2022-07-04T17:38:15;23.60;83.70
10660;DHT22;5378;53.206;13.316;2022-07-04T17:41:02;23.60;84.40
10660;DHT22;5378;53.206;13.316;2022-07-04T17:44:16;23.40;85.60
10660;DHT22;5378;53.206;13.316;2022-07-04T17:47:05;23.30;85.00
10660;DHT22;5378;53.206;13.316;2022-07-04T17:49:52;23.30;83.90